createdAt,value
2023-01-21T00:00:10.073Z,6.15
2023-01-21T00:02:36.788Z,7.10
2023-01-21T00:05:04.326Z,6.82
2023-01-21T00:07:30.981Z,7.25
2023-01-21T00:09:57.688Z,7.45
2023-01-21T00:12:24.349Z,8.98
2023-01-21T00:14:51.065Z,9.75
2023-01-21T00:17:17.749Z,8.45
2023-01-21T00:19:44.417Z,9.15
2023-01-21T00:22:11.142Z,15.73
2023-01-21T00:24:37.795Z,9.15
2023-01-21T00:27:04.769Z,8.50
2023-01-21T00:29:31.442Z,12.90
2023-01-21T00:31:58.163Z,19.65
2023-01-21T00:34:24.894Z,12.55
2023-01-21T00:36:51.538Z,17.08
2023-01-21T00:39:18.263Z,22.70
2023-01-21T00:41:44.952Z,23.27
2023-01-21T00:44:11.626Z,26.98
2023-01-21T00:46:38.400Z,20.80
2023-01-21T00:49:05.200Z,20.73
2023-01-21T00:51:31.842Z,21.45
2023-01-21T00:53:58.525Z,24.75
2023-01-21T00:56:25.259Z,21.42
2023-01-21T00:58:52.088Z,26.88
2023-01-21T01:01:20.293Z,23.45
2023-01-21T01:03:48.481Z,23.23
2023-01-21T01:06:17.865Z,21.70
2023-01-21T01:08:45.813Z,22.50
2023-01-21T01:11:13.414Z,24.70
2023-01-21T01:13:40.738Z,21.48
2023-01-21T01:16:08.193Z,25.60
2023-01-21T01:18:36.524Z,25.88
2023-01-21T01:21:04.448Z,21.00
2023-01-21T01:23:31.401Z,20.92
2023-01-21T01:26:00.696Z,20.17
2023-01-21T01:28:28.299Z,19.77
2023-01-21T01:30:55.571Z,28.38
2023-01-21T01:33:22.817Z,24.45
2023-01-21T01:35:49.876Z,25.55
2023-01-21T01:38:20.359Z,25.13
2023-01-21T01:40:48.410Z,26.13
2023-01-21T01:43:23.903Z,22.23
2023-01-21T01:45:50.836Z,19.75
2023-01-21T01:48:29.884Z,20.27
2023-01-21T01:50:59.421Z,17.98
2023-01-21T01:53:26.799Z,18.15
2023-01-21T01:55:55.177Z,21.50
2023-01-21T01:58:22.645Z,15.13
2023-01-21T02:00:49.415Z,18.33
2023-01-21T02:03:35.683Z,18.88
2023-01-21T02:06:02.366Z,18.73
2023-01-21T02:08:29.660Z,19.08
2023-01-21T02:10:56.756Z,25.95
2023-01-21T02:13:24.831Z,20.08
2023-01-21T02:16:19.261Z,23.92
2023-01-21T02:18:52.727Z,16.80
2023-01-21T02:21:31.526Z,17.55
2023-01-21T02:24:28.918Z,17.15
2023-01-21T02:27:27.530Z,15.48
2023-01-21T02:30:07.181Z,15.45
2023-01-21T02:32:55.561Z,13.32
2023-01-21T02:35:31.224Z,14.27
2023-01-21T02:40:40.008Z,13.38
2023-01-21T02:43:51.644Z,17.67
2023-01-21T02:46:59.613Z,23.20
2023-01-21T02:49:39.969Z,14.23
2023-01-21T02:52:06.706Z,13.30
2023-01-21T02:54:39.373Z,16.27
2023-01-21T02:57:07.259Z,15.98
2023-01-21T02:59:36.450Z,16.75
2023-01-21T03:02:18.157Z,18.70
2023-01-21T03:04:48.549Z,20.23
2023-01-21T03:07:35.927Z,19.23
2023-01-21T03:10:33.198Z,18.15
2023-01-21T03:13:03.991Z,22.25
2023-01-21T03:16:03.471Z,13.75
2023-01-21T03:18:34.607Z,18.83
2023-01-21T03:21:27.668Z,28.48
2023-01-21T03:23:56.986Z,22.85
2023-01-21T03:26:36.278Z,18.33
2023-01-21T03:29:06.720Z,26.35
2023-01-21T03:31:36.894Z,20.77
2023-01-21T03:34:07.746Z,22.50
2023-01-21T03:36:52.659Z,16.92
2023-01-21T03:39:42.046Z,27.63
2023-01-21T03:42:10.529Z,14.80
2023-01-21T03:44:37.815Z,26.15
2023-01-21T03:47:28.905Z,19.15
2023-01-21T03:50:07.428Z,15.95
2023-01-21T03:52:34.077Z,12.75
2023-01-21T03:55:00.780Z,13.25
2023-01-21T03:57:27.803Z,16.80
2023-01-21T03:59:54.703Z,15.95
2023-01-21T04:02:21.424Z,26.10
2023-01-21T04:04:48.235Z,27.75
2023-01-21T04:07:16.115Z,27.80
2023-01-21T04:09:43.305Z,30.05
2023-01-21T04:12:10.137Z,21.48
2023-01-21T04:14:36.835Z,21.52
2023-01-21T04:17:03.756Z,27.75
2023-01-21T04:19:30.423Z,35.15
2023-01-21T04:21:57.334Z,54.55
2023-01-21T04:24:24.007Z,47.03
2023-01-21T04:26:50.812Z,44.42
2023-01-21T04:29:18.229Z,58.22
2023-01-21T04:31:44.987Z,52.83
2023-01-21T04:34:11.672Z,48.90
2023-01-21T04:36:38.359Z,47.25
2023-01-21T04:39:05.145Z,61.22
2023-01-21T04:41:31.844Z,39.58
2023-01-21T04:43:58.870Z,30.35
2023-01-21T04:46:25.541Z,31.05
2023-01-21T04:48:52.252Z,37.58
2023-01-21T04:51:19.094Z,19.98
2023-01-21T04:53:45.781Z,28.88
2023-01-21T04:56:12.448Z,39.17
2023-01-21T04:58:39.201Z,30.80
2023-01-21T05:01:06.110Z,29.42
2023-01-21T05:03:32.860Z,28.75
2023-01-21T05:05:59.556Z,21.05
2023-01-21T05:08:26.257Z,26.35
2023-01-21T05:10:52.879Z,18.58
2023-01-21T05:13:20.097Z,14.88
2023-01-21T05:15:47.233Z,29.25
2023-01-21T05:18:14.017Z,19.13
2023-01-21T05:20:42.033Z,21.95
2023-01-21T05:23:08.720Z,27.75
2023-01-21T05:25:35.380Z,39.92
2023-01-21T05:28:04.082Z,44.67
2023-01-21T05:30:30.763Z,28.17
2023-01-21T05:32:57.517Z,34.10
2023-01-21T05:35:24.672Z,16.08
2023-01-21T05:37:52.682Z,26.20
2023-01-21T05:40:19.609Z,23.40
2023-01-21T05:42:47.232Z,19.52
2023-01-21T05:45:14.142Z,16.95
2023-01-21T05:47:40.852Z,17.65
2023-01-21T05:50:08.288Z,12.48
2023-01-21T05:52:34.968Z,12.93
2023-01-21T05:55:02.999Z,11.05
2023-01-21T05:57:31.546Z,8.93
2023-01-21T05:59:59.050Z,12.73
2023-01-21T06:02:25.974Z,13.07
2023-01-21T06:04:53.021Z,28.17
2023-01-21T06:07:21.794Z,17.88
2023-01-21T06:09:48.512Z,29.80
2023-01-21T06:12:15.375Z,26.40
2023-01-21T06:14:42.540Z,31.52
2023-01-21T06:17:09.164Z,38.95
2023-01-21T06:19:35.844Z,24.88
2023-01-21T06:22:02.484Z,25.60
2023-01-21T06:24:29.165Z,27.95
2023-01-21T06:26:55.821Z,20.98
2023-01-21T06:29:22.454Z,19.92
2023-01-21T06:31:49.242Z,28.65
2023-01-21T06:34:16.032Z,11.00
2023-01-21T06:36:42.925Z,16.83
2023-01-21T06:39:11.046Z,18.40
2023-01-21T06:41:37.830Z,19.10
2023-01-21T06:44:05.029Z,14.07
2023-01-21T06:46:32.083Z,12.60
2023-01-21T06:49:00.369Z,16.63
2023-01-21T06:51:27.484Z,18.02
2023-01-21T06:53:54.357Z,12.23
2023-01-21T06:56:21.881Z,12.52
2023-01-21T06:58:48.581Z,15.90
2023-01-21T07:01:15.283Z,20.38
2023-01-21T07:03:41.976Z,13.70
2023-01-21T07:06:08.676Z,10.82
2023-01-21T07:08:35.314Z,12.52
2023-01-21T07:11:02.339Z,11.90
2023-01-21T07:13:29.007Z,15.35
2023-01-21T07:16:02.008Z,15.35
2023-01-21T07:18:29.040Z,10.40
2023-01-21T07:20:56.097Z,10.98
2023-01-21T07:23:22.857Z,19.15
2023-01-21T07:25:49.540Z,14.32
2023-01-21T07:28:16.468Z,11.88
2023-01-21T07:30:46.195Z,13.98
2023-01-21T07:33:12.947Z,11.90
2023-01-21T07:35:39.695Z,14.70
2023-01-21T07:38:06.579Z,14.82
2023-01-21T07:40:33.329Z,16.17
2023-01-21T07:43:00.014Z,20.05
2023-01-21T07:45:26.736Z,13.55
2023-01-21T07:47:53.587Z,11.77
2023-01-21T07:50:20.300Z,17.40
2023-01-21T07:52:46.996Z,23.67
2023-01-21T07:55:13.699Z,14.45
2023-01-21T07:57:40.576Z,14.15
2023-01-21T08:00:08.298Z,11.95
2023-01-21T08:02:36.420Z,9.55
2023-01-21T08:05:03.434Z,17.27
2023-01-21T08:07:30.123Z,10.60
2023-01-21T08:09:56.884Z,19.90
2023-01-21T08:12:27.355Z,20.20
2023-01-21T08:14:54.174Z,12.35
2023-01-21T08:17:20.881Z,9.80
2023-01-21T08:19:47.536Z,13.93
2023-01-21T08:22:14.196Z,15.98
2023-01-21T08:24:40.828Z,12.27
2023-01-21T08:27:07.521Z,18.25
2023-01-21T08:29:34.197Z,10.70
2023-01-21T08:32:00.825Z,11.02
2023-01-21T08:34:27.621Z,11.57
2023-01-21T08:36:54.274Z,10.52
2023-01-21T08:39:21.044Z,8.95
2023-01-21T08:41:47.701Z,10.35
2023-01-21T08:44:14.364Z,11.63
2023-01-21T08:46:41.151Z,9.13
2023-01-21T08:49:07.974Z,9.52
2023-01-21T08:51:34.706Z,9.57
2023-01-21T08:54:01.489Z,13.85
2023-01-21T08:56:28.168Z,9.90
2023-01-21T08:58:57.981Z,12.57
2023-01-21T09:01:25.900Z,13.88
2023-01-21T09:04:00.543Z,12.38
2023-01-21T09:06:28.795Z,14.43
2023-01-21T09:08:56.199Z,9.07
2023-01-21T09:11:23.140Z,10.15
2023-01-21T09:13:49.808Z,15.93
2023-01-21T09:16:21.569Z,11.90
2023-01-21T09:18:48.996Z,10.88
2023-01-21T09:21:16.451Z,11.70
2023-01-21T09:23:43.187Z,9.82
2023-01-21T09:26:20.684Z,13.10
2023-01-21T09:28:52.842Z,13.98
2023-01-21T09:31:21.801Z,16.67
2023-01-21T09:36:35.395Z,16.42
2023-01-21T09:39:02.675Z,29.30
2023-01-21T09:41:38.193Z,17.42
2023-01-21T09:44:11.191Z,20.15
2023-01-21T09:46:49.722Z,12.15
2023-01-21T09:49:36.159Z,22.45
2023-01-21T09:52:19.330Z,19.50
2023-01-21T09:54:46.072Z,15.90
2023-01-21T09:57:41.729Z,17.88
2023-01-21T10:00:18.622Z,17.05
2023-01-21T10:03:11.620Z,16.33
2023-01-21T10:05:53.449Z,18.95
2023-01-21T10:08:38.446Z,16.45
2023-01-21T10:11:23.390Z,12.27
2023-01-21T10:14:11.404Z,24.60
2023-01-21T10:16:47.854Z,12.15
2023-01-21T10:19:28.435Z,14.95
2023-01-21T10:21:57.122Z,15.43
2023-01-21T10:24:39.748Z,20.33
2023-01-21T10:27:11.708Z,16.73
2023-01-21T10:29:41.924Z,18.60
2023-01-21T10:32:17.767Z,12.88
2023-01-21T10:34:52.841Z,16.63
2023-01-21T10:37:19.414Z,13.75
2023-01-21T10:39:58.682Z,14.85
2023-01-21T10:42:55.656Z,17.25
2023-01-21T10:45:43.355Z,18.98
2023-01-21T10:48:12.900Z,25.65
2023-01-21T10:50:55.088Z,13.95
2023-01-21T10:53:34.709Z,16.70
2023-01-21T10:56:17.431Z,14.85
2023-01-21T10:58:51.245Z,19.42
2023-01-21T11:01:36.399Z,21.45
2023-01-21T11:04:24.089Z,17.13
2023-01-21T11:07:01.632Z,19.33
2023-01-21T11:09:31.771Z,15.10
2023-01-21T11:12:00.544Z,22.25
2023-01-21T11:14:27.935Z,18.52
2023-01-21T11:16:55.054Z,16.98
2023-01-21T11:19:31.084Z,19.55
2023-01-21T11:21:57.740Z,18.75
2023-01-21T11:24:26.127Z,14.63
2023-01-21T11:27:02.096Z,15.80
2023-01-21T11:29:40.075Z,16.02
2023-01-21T11:32:16.528Z,14.40
2023-01-21T11:34:49.453Z,17.33
2023-01-21T11:37:24.903Z,14.75
2023-01-21T11:40:00.655Z,15.48
2023-01-21T11:42:27.443Z,17.15
2023-01-21T11:45:09.758Z,20.02
2023-01-21T11:47:47.453Z,19.33
2023-01-21T11:50:27.534Z,21.85
2023-01-21T11:53:13.543Z,20.88
2023-01-21T11:55:49.973Z,16.67
2023-01-21T11:58:25.346Z,18.75
2023-01-21T12:03:27.124Z,15.65
2023-01-21T12:05:54.083Z,27.48
2023-01-21T12:08:26.795Z,17.65
2023-01-21T12:10:55.968Z,16.20
2023-01-21T12:16:19.013Z,12.55
2023-01-21T12:18:51.389Z,16.45
2023-01-21T12:21:45.787Z,18.00
2023-01-21T12:24:28.941Z,23.48
2023-01-21T12:27:06.069Z,24.20
2023-01-21T12:30:06.639Z,21.98
2023-01-21T12:32:51.440Z,19.27
2023-01-21T12:35:38.086Z,23.60
2023-01-21T12:38:13.349Z,21.30
2023-01-21T12:43:42.500Z,23.35
2023-01-21T12:46:21.877Z,26.23
2023-01-21T12:48:56.077Z,17.25
2023-01-21T12:51:28.434Z,19.50
2023-01-21T12:54:22.877Z,15.75
2023-01-21T12:56:58.680Z,16.45
2023-01-21T12:59:44.461Z,26.17
2023-01-21T13:02:32.112Z,15.43
2023-01-21T13:07:41.951Z,19.23
2023-01-21T13:10:22.276Z,23.85
2023-01-21T13:13:00.482Z,19.25
2023-01-21T13:15:32.840Z,19.83
2023-01-21T13:18:05.113Z,24.15
2023-01-21T13:20:36.277Z,19.73
2023-01-21T13:23:08.457Z,21.67
2023-01-21T13:25:38.062Z,32.30
2023-01-21T13:28:10.181Z,17.40
2023-01-21T13:30:52.177Z,23.00
2023-01-21T13:33:42.509Z,14.23
2023-01-21T13:36:25.009Z,19.00
2023-01-21T13:39:13.416Z,24.83
2023-01-21T13:42:04.397Z,19.00
2023-01-21T13:45:08.130Z,23.25
2023-01-21T13:48:11.844Z,21.35
2023-01-21T13:51:12.764Z,16.08
2023-01-21T13:54:10.784Z,14.93
2023-01-21T13:57:11.473Z,21.00
2023-01-21T13:59:56.537Z,18.33
2023-01-21T14:03:07.185Z,17.45
2023-01-21T14:05:38.234Z,17.08
2023-01-21T14:08:22.278Z,22.98
2023-01-21T14:10:59.920Z,15.90
2023-01-21T14:13:56.440Z,19.08
2023-01-21T14:16:41.978Z,19.15
2023-01-21T14:19:35.427Z,18.05
2023-01-21T14:22:29.871Z,21.50
2023-01-21T14:25:02.648Z,23.90
2023-01-21T14:27:50.296Z,19.45
2023-01-21T14:30:30.707Z,15.38
2023-01-21T14:33:01.556Z,18.17
2023-01-21T14:38:43.540Z,16.33
2023-01-21T14:41:11.347Z,17.45
2023-01-21T14:43:38.061Z,17.75
2023-01-21T14:46:28.548Z,13.98
2023-01-21T14:49:08.386Z,17.13
2023-01-21T14:51:45.043Z,17.15
2023-01-21T14:54:34.248Z,25.08
2023-01-21T14:57:13.738Z,25.45
2023-01-21T15:02:35.842Z,21.95
2023-01-21T15:05:27.792Z,25.95
2023-01-21T15:08:23.126Z,38.42
2023-01-21T15:11:12.442Z,19.73
2023-01-21T15:13:40.036Z,25.00
2023-01-21T15:16:31.628Z,17.02
2023-01-21T15:19:34.529Z,18.52
2023-01-21T15:22:19.816Z,20.70
2023-01-21T15:25:07.253Z,22.08
2023-01-21T15:27:34.056Z,22.10
2023-01-21T15:30:00.958Z,19.90
2023-01-21T15:32:40.313Z,25.23
2023-01-21T15:35:33.547Z,21.33
2023-01-21T15:38:09.015Z,22.45
2023-01-21T15:43:28.291Z,19.77
2023-01-21T15:46:17.751Z,15.73
2023-01-21T15:49:02.737Z,18.52
2023-01-21T15:51:45.299Z,22.77
2023-01-21T15:54:31.779Z,26.33
2023-01-21T15:57:01.435Z,18.00
2023-01-21T16:00:06.905Z,15.55
2023-01-21T16:02:58.030Z,19.40
2023-01-21T16:05:33.770Z,19.35
2023-01-21T16:08:12.993Z,17.40
2023-01-21T16:10:58.775Z,19.85
2023-01-21T16:13:40.546Z,37.78
2023-01-21T16:16:09.976Z,17.30
2023-01-21T16:18:45.921Z,24.85
2023-01-21T16:21:13.939Z,21.90
2023-01-21T16:23:42.478Z,18.20
2023-01-21T16:26:09.206Z,19.60
2023-01-21T16:28:45.263Z,15.60
2023-01-21T16:31:12.045Z,32.70
2023-01-21T16:33:41.169Z,20.08
2023-01-21T16:36:09.209Z,21.48
2023-01-21T16:38:37.599Z,15.20
2023-01-21T16:41:07.161Z,14.75
2023-01-21T16:43:53.263Z,30.08
2023-01-21T16:46:25.808Z,21.85
2023-01-21T16:48:54.770Z,18.50
2023-01-21T16:51:29.183Z,16.75
2023-01-21T16:54:17.541Z,20.92
2023-01-21T16:56:55.692Z,36.38
2023-01-21T16:59:29.172Z,133.73
2023-01-21T17:01:56.662Z,55.42
2023-01-21T17:04:23.449Z,139.52
2023-01-21T17:06:50.417Z,146.93
2023-01-21T17:09:36.045Z,292.75
2023-01-21T17:12:06.516Z,214.10
2023-01-21T17:14:34.725Z,162.45
2023-01-21T17:17:04.072Z,481.60
2023-01-21T17:19:37.433Z,98.18
2023-01-21T17:22:23.765Z,277.92
2023-01-21T17:25:10.410Z,76.38
2023-01-21T17:27:39.413Z,102.55
2023-01-21T17:30:29.686Z,100.35
2023-01-21T17:33:01.157Z,24.10
2023-01-21T17:35:30.142Z,20.85
2023-01-21T17:37:58.471Z,27.67
2023-01-21T17:40:27.921Z,21.00
2023-01-21T17:42:55.580Z,22.83
2023-01-21T17:45:35.520Z,27.08
2023-01-21T17:48:14.103Z,20.23
2023-01-21T17:50:46.110Z,29.92
2023-01-21T17:53:21.382Z,30.52
2023-01-21T17:56:04.658Z,25.83
2023-01-21T17:58:31.517Z,30.52
2023-01-21T18:01:03.304Z,31.55
2023-01-21T18:03:30.058Z,22.67
2023-01-21T18:05:57.058Z,26.13
2023-01-21T18:08:24.628Z,24.08
2023-01-21T18:10:51.372Z,28.48
2023-01-21T18:13:19.420Z,33.15
2023-01-21T18:15:48.417Z,34.28
2023-01-21T18:18:19.970Z,28.15
2023-01-21T18:20:47.411Z,22.35
2023-01-21T18:23:15.249Z,31.73
2023-01-21T18:25:42.391Z,31.00
2023-01-21T18:28:28.656Z,22.10
2023-01-21T18:30:56.941Z,26.55
2023-01-21T18:33:24.446Z,26.45
2023-01-21T18:35:52.208Z,26.38
2023-01-21T18:38:27.560Z,21.50
2023-01-21T18:43:21.631Z,22.08
2023-01-21T18:45:48.338Z,21.92
2023-01-21T18:48:16.516Z,23.95
2023-01-21T18:50:43.364Z,22.27
2023-01-21T18:53:10.277Z,21.33
2023-01-21T18:55:36.971Z,28.15
2023-01-21T18:58:04.627Z,16.77
2023-01-21T19:00:33.959Z,17.80
2023-01-21T19:03:01.645Z,22.35
2023-01-21T19:05:34.654Z,27.83
2023-01-21T19:08:02.275Z,32.13
2023-01-21T19:10:28.967Z,20.77
2023-01-21T19:12:55.665Z,52.28
2023-01-21T19:15:24.147Z,37.05
2023-01-21T19:17:51.966Z,44.15
2023-01-21T19:20:23.409Z,33.13
2023-01-21T19:22:51.423Z,38.75
2023-01-21T19:25:18.755Z,33.20
2023-01-21T19:27:50.565Z,33.22
2023-01-21T19:30:20.203Z,25.85
2023-01-21T19:32:47.480Z,22.48
2023-01-21T19:35:20.184Z,19.98
2023-01-21T19:37:50.989Z,32.40
2023-01-21T19:40:20.712Z,20.50
2023-01-21T19:42:48.161Z,25.88
2023-01-21T19:45:15.995Z,21.33
2023-01-21T19:47:46.304Z,23.80
2023-01-21T19:50:21.454Z,26.77
2023-01-21T19:52:49.980Z,23.05
2023-01-21T19:55:24.727Z,28.42
2023-01-21T19:58:02.887Z,23.00
2023-01-21T20:00:34.770Z,23.85
2023-01-21T20:03:01.636Z,24.95
2023-01-21T20:05:30.321Z,23.58
2023-01-21T20:07:56.999Z,22.17
2023-01-21T20:10:26.440Z,22.27
2023-01-21T20:12:53.477Z,23.85
2023-01-21T20:15:31.182Z,23.67
2023-01-21T20:17:59.530Z,20.23
2023-01-21T20:20:31.858Z,25.45
2023-01-21T20:22:59.558Z,20.67
2023-01-21T20:25:32.243Z,15.07
2023-01-21T20:27:59.957Z,22.48
2023-01-21T20:30:29.697Z,23.05
2023-01-21T20:32:57.250Z,15.95
2023-01-21T20:35:26.938Z,18.27
2023-01-21T20:37:55.624Z,14.90
2023-01-21T20:40:26.319Z,22.52
2023-01-21T20:42:54.378Z,15.25
2023-01-21T20:45:24.753Z,21.50
2023-01-21T20:47:53.605Z,17.55
2023-01-21T20:50:21.330Z,22.45
2023-01-21T20:52:49.065Z,19.38
2023-01-21T20:55:20.642Z,15.70
2023-01-21T20:57:47.911Z,15.48
2023-01-21T21:00:17.940Z,20.80
2023-01-21T21:02:45.040Z,23.08
2023-01-21T21:05:13.540Z,15.32
2023-01-21T21:07:40.919Z,19.88
2023-01-21T21:10:17.039Z,20.85
2023-01-21T21:12:43.934Z,18.73
2023-01-21T21:15:11.555Z,16.27
2023-01-21T21:17:38.196Z,21.10
2023-01-21T21:20:05.737Z,13.88
2023-01-21T21:22:32.489Z,19.52
2023-01-21T21:24:59.169Z,18.92
2023-01-21T21:27:25.845Z,17.10
2023-01-21T21:29:56.093Z,15.05
2023-01-21T21:32:22.761Z,17.70
2023-01-21T21:34:51.338Z,13.88
2023-01-21T21:37:18.041Z,19.45
2023-01-21T21:39:44.710Z,19.33
2023-01-21T21:42:30.716Z,20.30
2023-01-21T21:44:57.432Z,19.60
2023-01-21T21:47:42.692Z,19.58
2023-01-21T21:50:09.617Z,19.95
2023-01-21T21:52:36.260Z,16.00
2023-01-21T21:55:02.948Z,22.40
2023-01-21T21:57:29.595Z,19.65
2023-01-21T21:59:56.288Z,18.08
2023-01-21T22:02:22.980Z,13.25
2023-01-21T22:04:49.735Z,17.65
2023-01-21T22:07:16.438Z,12.70
2023-01-21T22:09:43.088Z,12.60
2023-01-21T22:12:10.272Z,15.93
2023-01-21T22:14:36.951Z,17.65
2023-01-21T22:17:03.611Z,12.63
2023-01-21T22:19:30.318Z,17.73
2023-01-21T22:21:57.024Z,11.10
2023-01-21T22:24:23.668Z,12.95
2023-01-21T22:26:51.522Z,11.57
2023-01-21T22:29:19.269Z,14.02
2023-01-21T22:31:46.087Z,12.43
2023-01-21T22:34:12.993Z,11.60
2023-01-21T22:36:47.207Z,13.40
2023-01-21T22:39:14.001Z,13.00
2023-01-21T22:41:40.638Z,12.77
2023-01-21T22:44:07.369Z,17.65
2023-01-21T22:46:35.322Z,11.18
2023-01-21T22:49:02.369Z,12.63
2023-01-21T22:51:29.219Z,11.38
2023-01-21T22:54:00.201Z,19.23
2023-01-21T22:56:49.457Z,13.43
2023-01-21T22:59:14.454Z,14.18
2023-01-21T23:01:41.736Z,14.52
2023-01-21T23:04:10.608Z,11.32
2023-01-21T23:06:37.858Z,19.67
2023-01-21T23:09:05.701Z,14.43
2023-01-21T23:11:35.247Z,14.63
2023-01-21T23:14:04.579Z,15.30
2023-01-21T23:16:31.343Z,12.63
2023-01-21T23:19:00.811Z,15.82
2023-01-21T23:21:27.507Z,17.98
2023-01-21T23:23:55.684Z,13.75
2023-01-21T23:26:22.916Z,18.90
2023-01-21T23:28:54.640Z,12.68
2023-01-21T23:31:21.354Z,14.35
2023-01-21T23:33:53.741Z,15.18
2023-01-21T23:36:20.658Z,14.38
2023-01-21T23:38:47.702Z,18.02
2023-01-21T23:41:19.931Z,11.55
2023-01-21T23:43:46.768Z,15.38
2023-01-21T23:46:16.673Z,12.77
2023-01-21T23:48:45.918Z,13.40
2023-01-21T23:51:16.527Z,12.65
2023-01-21T23:56:29.791Z,12.38
2023-01-21T23:58:56.861Z,13.43
